createdAt,value
2018-06-22T00:00:15.314Z,0.00
2018-06-22T00:01:15.281Z,0.00
2018-06-22T00:02:15.267Z,0.00
2018-06-22T00:03:15.259Z,0.00
2018-06-22T00:04:15.243Z,0.00
2018-06-22T00:05:15.230Z,0.00
2018-06-22T00:06:15.227Z,0.00
2018-06-22T00:07:15.218Z,0.00
2018-06-22T00:08:15.204Z,0.00
2018-06-22T00:09:15.192Z,0.00
2018-06-22T00:10:15.178Z,0.00
2018-06-22T00:11:15.185Z,0.00
2018-06-22T00:12:15.155Z,0.00
2018-06-22T00:13:15.146Z,0.00
2018-06-22T00:14:15.138Z,0.00
2018-06-22T00:15:15.129Z,0.00
2018-06-22T00:16:15.138Z,0.00
2018-06-22T00:17:15.106Z,0.00
2018-06-22T00:18:15.093Z,0.00
2018-06-22T00:19:15.083Z,0.00
2018-06-22T00:20:15.076Z,0.00
2018-06-22T00:21:15.092Z,0.00
2018-06-22T00:22:15.051Z,0.00
2018-06-22T00:23:15.038Z,0.00
2018-06-22T00:24:15.027Z,0.00
2018-06-22T00:25:15.018Z,0.00
2018-06-22T00:26:15.010Z,0.00
2018-06-22T00:27:15.004Z,0.00
2018-06-22T00:28:14.991Z,0.00
2018-06-22T00:29:14.977Z,0.00
2018-06-22T00:30:14.965Z,0.00
2018-06-22T00:31:14.952Z,0.00
2018-06-22T00:32:14.959Z,0.00
2018-06-22T00:33:14.931Z,0.00
2018-06-22T00:34:14.931Z,0.00
2018-06-22T00:35:14.916Z,0.00
2018-06-22T00:36:14.897Z,0.00
2018-06-22T00:37:14.915Z,0.00
2018-06-22T00:38:14.881Z,0.00
2018-06-22T00:39:14.872Z,0.00
2018-06-22T00:40:14.861Z,0.00
2018-06-22T00:41:14.849Z,0.00
2018-06-22T00:42:14.836Z,0.00
2018-06-22T00:43:14.825Z,0.00
2018-06-22T00:44:14.813Z,0.00
2018-06-22T00:45:14.803Z,0.00
2018-06-22T00:46:14.795Z,0.00
2018-06-22T00:47:14.786Z,0.00
2018-06-22T00:48:14.778Z,0.00
2018-06-22T00:49:14.762Z,0.00
2018-06-22T00:50:14.753Z,0.00
2018-06-22T00:51:14.736Z,0.00
2018-06-22T00:52:14.732Z,0.00
2018-06-22T00:53:14.722Z,0.00
2018-06-22T00:54:14.707Z,0.00
2018-06-22T00:55:14.693Z,0.00
2018-06-22T00:56:14.687Z,0.00
2018-06-22T00:57:14.677Z,0.00
2018-06-22T00:58:14.684Z,0.00
2018-06-22T00:59:14.657Z,0.00
2018-06-22T01:00:14.650Z,0.00
2018-06-22T01:01:14.634Z,0.00
2018-06-22T01:02:14.623Z,0.00
2018-06-22T01:03:14.626Z,0.00
2018-06-22T01:04:14.602Z,0.00
2018-06-22T01:05:14.591Z,0.00
2018-06-22T01:06:14.580Z,0.00
2018-06-22T01:07:14.571Z,0.00
2018-06-22T01:08:14.585Z,0.00
2018-06-22T01:09:14.547Z,0.00
2018-06-22T01:10:14.536Z,0.00
2018-06-22T01:11:14.528Z,0.00
2018-06-22T01:12:14.518Z,0.00
2018-06-22T01:13:14.504Z,0.00
2018-06-22T01:14:14.499Z,0.00
2018-06-22T01:15:14.483Z,0.00
2018-06-22T01:16:14.468Z,0.00
2018-06-22T01:17:14.458Z,0.00
2018-06-22T01:18:14.451Z,0.00
2018-06-22T01:19:14.452Z,0.00
2018-06-22T01:20:14.431Z,0.00
2018-06-22T01:21:14.433Z,0.00
2018-06-22T01:22:14.413Z,0.00
2018-06-22T01:23:14.391Z,0.00
2018-06-22T01:24:14.408Z,0.00
2018-06-22T01:25:14.376Z,0.00
2018-06-22T01:26:14.362Z,0.00
2018-06-22T01:27:14.416Z,0.00
2018-06-22T01:28:14.341Z,0.00
2018-06-22T01:29:14.350Z,0.00
2018-06-22T01:30:14.319Z,0.00
2018-06-22T01:31:14.312Z,0.00
2018-06-22T01:32:14.306Z,0.00
2018-06-22T01:33:14.287Z,0.00
2018-06-22T01:34:14.303Z,0.00
2018-06-22T01:35:14.261Z,0.00
2018-06-22T01:36:14.251Z,0.00
2018-06-22T01:37:14.242Z,0.00
2018-06-22T01:38:14.234Z,0.00
2018-06-22T01:39:14.224Z,0.00
2018-06-22T01:40:14.209Z,0.00
2018-06-22T01:41:14.196Z,0.00
2018-06-22T01:42:14.193Z,0.00
2018-06-22T01:43:14.180Z,0.00
2018-06-22T01:44:14.168Z,0.00
2018-06-22T01:45:14.179Z,0.00
2018-06-22T01:46:14.145Z,0.00
2018-06-22T01:47:14.134Z,0.00
2018-06-22T01:48:14.122Z,0.00
2018-06-22T01:49:14.111Z,0.00
2018-06-22T01:50:14.135Z,0.00
2018-06-22T01:51:14.094Z,0.00
2018-06-22T01:52:14.082Z,0.00
2018-06-22T01:53:14.077Z,0.00
2018-06-22T01:54:14.057Z,0.00
2018-06-22T01:55:14.048Z,0.00
2018-06-22T01:56:14.043Z,0.00
2018-06-22T01:57:14.031Z,0.00
2018-06-22T01:58:14.018Z,0.00
2018-06-22T01:59:14.006Z,0.00
2018-06-22T02:00:13.995Z,0.00
2018-06-22T02:01:14.004Z,0.00
2018-06-22T02:02:13.986Z,0.00
2018-06-22T02:03:13.965Z,0.00
2018-06-22T02:04:13.951Z,0.00
2018-06-22T02:05:13.942Z,0.00
2018-06-22T02:06:13.982Z,0.00
2018-06-22T02:07:13.921Z,0.00
2018-06-22T02:08:13.911Z,0.00
2018-06-22T02:09:13.903Z,0.00
2018-06-22T02:10:13.886Z,0.00
2018-06-22T02:11:13.876Z,0.00
2018-06-22T02:12:13.873Z,0.00
2018-06-22T02:13:13.860Z,0.00
2018-06-22T02:14:13.842Z,0.00
2018-06-22T02:15:13.835Z,0.00
2018-06-22T02:16:13.823Z,0.00
2018-06-22T02:17:13.811Z,0.00
2018-06-22T02:18:13.807Z,0.00
2018-06-22T02:19:13.793Z,0.00
2018-06-22T02:20:13.782Z,0.00
2018-06-22T02:21:13.774Z,0.00
2018-06-22T02:22:13.787Z,0.00
2018-06-22T02:23:13.749Z,0.00
2018-06-22T02:24:13.738Z,0.00
2018-06-22T02:25:13.725Z,0.00
2018-06-22T02:26:13.723Z,0.00
2018-06-22T02:27:13.708Z,0.00
2018-06-22T02:28:13.697Z,0.00
2018-06-22T02:29:13.681Z,0.00
2018-06-22T02:30:13.678Z,0.00
2018-06-22T02:31:13.666Z,0.00
2018-06-22T02:32:13.656Z,4.00
2018-06-22T02:33:13.665Z,0.00
2018-06-22T02:34:13.628Z,0.00
2018-06-22T02:35:13.620Z,0.00
2018-06-22T02:36:13.611Z,4.00
2018-06-22T02:37:13.597Z,4.00
2018-06-22T02:38:13.618Z,4.00
2018-06-22T02:39:13.579Z,4.00
2018-06-22T02:40:13.568Z,4.00
2018-06-22T02:41:13.561Z,4.00
2018-06-22T02:42:13.543Z,4.00
2018-06-22T02:43:13.535Z,0.00
2018-06-22T02:44:13.529Z,4.00
2018-06-22T02:45:13.519Z,4.00
2018-06-22T02:46:13.500Z,4.00
2018-06-22T02:47:13.493Z,4.00
2018-06-22T02:48:13.481Z,4.00
2018-06-22T02:49:13.470Z,4.00
2018-06-22T02:50:13.464Z,8.00
2018-06-22T02:51:13.453Z,8.00
2018-06-22T02:52:13.440Z,4.00
2018-06-22T02:53:13.447Z,4.00
2018-06-22T02:54:13.434Z,8.00
2018-06-22T02:55:13.406Z,8.00
2018-06-22T02:56:13.397Z,12.00
2018-06-22T02:57:13.383Z,12.00
2018-06-22T02:58:13.380Z,12.00
2018-06-22T02:59:13.393Z,20.00
2018-06-22T03:00:13.360Z,20.00
2018-06-22T03:01:13.340Z,24.00
2018-06-22T03:02:13.337Z,24.00
2018-06-22T03:03:13.323Z,32.00
2018-06-22T03:04:13.312Z,36.00
2018-06-22T03:05:13.311Z,36.00
2018-06-22T03:06:13.334Z,40.00
2018-06-22T03:07:13.277Z,52.00
2018-06-22T03:08:13.276Z,48.00
2018-06-22T03:09:13.253Z,44.00
2018-06-22T03:10:13.266Z,52.00
2018-06-22T03:11:13.236Z,48.00
2018-06-22T03:12:13.226Z,52.00
2018-06-22T03:13:13.217Z,56.00
2018-06-22T03:14:13.200Z,56.00
2018-06-22T03:15:13.221Z,68.00
2018-06-22T03:16:13.190Z,68.00
2018-06-22T03:17:13.173Z,76.00
2018-06-22T03:18:13.155Z,100.00
2018-06-22T03:19:13.147Z,120.00
2018-06-22T03:20:13.137Z,160.00
2018-06-22T03:21:13.125Z,192.00
2018-06-22T03:22:13.121Z,224.00
2018-06-22T03:23:13.120Z,256.00
2018-06-22T03:24:13.097Z,288.00
2018-06-22T03:25:13.090Z,316.00
2018-06-22T03:26:13.095Z,316.00
2018-06-22T03:27:13.068Z,272.00
2018-06-22T03:28:13.061Z,304.00
2018-06-22T03:29:13.037Z,372.00
2018-06-22T03:30:13.032Z,448.00
2018-06-22T03:31:13.051Z,536.00
2018-06-22T03:32:13.158Z,572.00
2018-06-22T03:33:12.995Z,524.00
2018-06-22T03:34:12.989Z,488.00
2018-06-22T03:35:12.981Z,520.00
2018-06-22T03:36:12.968Z,656.00
2018-06-22T03:37:12.960Z,752.00
2018-06-22T03:38:12.940Z,692.00
2018-06-22T03:39:12.932Z,620.00
2018-06-22T03:40:12.920Z,660.00
2018-06-22T03:41:12.910Z,648.00
2018-06-22T03:42:12.914Z,628.00
2018-06-22T03:43:12.891Z,688.00
2018-06-22T03:44:12.880Z,640.00
2018-06-22T03:45:12.871Z,580.00
2018-06-22T03:46:12.854Z,484.00
2018-06-22T03:47:12.848Z,460.00
2018-06-22T03:48:12.837Z,444.00
2018-06-22T03:49:12.827Z,484.00
2018-06-22T03:50:12.814Z,580.00
2018-06-22T03:51:12.805Z,636.00
2018-06-22T03:52:12.822Z,668.00
2018-06-22T03:53:12.782Z,744.00
2018-06-22T03:54:12.775Z,796.00
2018-06-22T03:55:12.770Z,824.00
2018-06-22T03:56:12.751Z,884.00
2018-06-22T03:57:12.742Z,968.00
2018-06-22T03:58:12.728Z,1080.00
2018-06-22T03:59:12.719Z,1204.00
2018-06-22T04:00:12.711Z,1288.00
2018-06-22T04:01:12.701Z,1340.00
2018-06-22T04:02:12.692Z,1340.00
2018-06-22T04:03:12.695Z,1348.00
2018-06-22T04:04:12.696Z,1304.00
2018-06-22T04:05:12.655Z,1192.00
2018-06-22T04:06:12.647Z,1164.00
2018-06-22T04:07:12.632Z,1220.00
2018-06-22T04:08:12.696Z,1184.00
2018-06-22T04:09:12.613Z,1140.00
2018-06-22T04:10:12.599Z,1100.00
2018-06-22T04:11:12.585Z,1288.00
2018-06-22T04:12:12.576Z,1392.00
2018-06-22T04:13:12.567Z,1392.00
2018-06-22T04:14:12.568Z,1516.00
2018-06-22T04:15:12.545Z,1652.00
2018-06-22T04:16:12.540Z,1736.00
2018-06-22T04:17:12.564Z,1744.00
2018-06-22T04:18:12.509Z,1656.00
2018-06-22T04:19:12.520Z,1712.00
2018-06-22T04:20:12.491Z,1688.00
2018-06-22T04:21:12.489Z,1632.00
2018-06-22T04:22:12.465Z,1652.00
2018-06-22T04:23:12.456Z,1684.00
2018-06-22T04:24:12.472Z,1728.00
2018-06-22T04:25:12.436Z,1832.00
2018-06-22T04:26:12.434Z,1808.00
2018-06-22T04:27:12.416Z,1772.00
2018-06-22T04:28:12.407Z,1848.00
2018-06-22T04:29:12.398Z,1932.00
2018-06-22T04:30:12.386Z,1964.00
2018-06-22T04:31:12.374Z,1952.00
2018-06-22T04:32:12.361Z,1948.00
2018-06-22T04:33:12.347Z,1988.00
2018-06-22T04:34:12.346Z,2044.00
2018-06-22T04:35:12.356Z,2168.00
2018-06-22T04:36:12.319Z,2308.00
2018-06-22T04:37:12.306Z,2552.00
2018-06-22T04:38:12.301Z,2696.00
2018-06-22T04:39:12.287Z,2764.00
2018-06-22T04:40:12.296Z,2572.00
2018-06-22T04:41:12.271Z,2244.00
2018-06-22T04:42:12.252Z,1888.00
2018-06-22T04:43:12.245Z,2072.00
2018-06-22T04:44:12.238Z,2560.00
2018-06-22T04:45:12.250Z,3056.00
2018-06-22T04:46:12.215Z,3300.00
2018-06-22T04:47:12.208Z,3228.00
2018-06-22T04:48:12.193Z,3200.00
2018-06-22T04:49:12.186Z,3068.00
2018-06-22T04:50:12.167Z,2868.00
2018-06-22T04:51:12.168Z,2920.00
2018-06-22T04:52:12.149Z,3044.00
2018-06-22T04:53:12.143Z,3176.00
2018-06-22T04:54:12.124Z,3080.00
2018-06-22T04:55:12.116Z,2868.00
2018-06-22T04:56:12.125Z,2408.00
2018-06-22T04:57:12.092Z,1872.00
2018-06-22T04:58:12.088Z,1496.00
2018-06-22T04:59:12.077Z,1312.00
2018-06-22T05:00:12.066Z,1404.00
2018-06-22T05:01:12.080Z,1820.00
2018-06-22T05:02:12.054Z,2696.00
2018-06-22T05:03:12.041Z,3396.00
2018-06-22T05:04:12.023Z,3672.00
2018-06-22T05:05:12.006Z,3472.00
2018-06-22T05:06:12.008Z,2520.00
2018-06-22T05:07:11.998Z,2044.00
2018-06-22T05:08:11.976Z,1644.00
2018-06-22T05:09:11.998Z,1432.00
2018-06-22T05:10:11.960Z,1804.00
2018-06-22T05:11:11.976Z,2020.00
2018-06-22T05:12:11.936Z,2212.00
2018-06-22T05:13:11.927Z,2648.00
2018-06-22T05:14:11.909Z,3056.00
2018-06-22T05:15:11.902Z,3260.00
2018-06-22T05:16:11.887Z,3300.00
2018-06-22T05:17:11.880Z,3196.00
2018-06-22T05:18:11.877Z,3204.00
2018-06-22T05:19:11.861Z,3164.00
2018-06-22T05:20:11.849Z,2996.00
2018-06-22T05:21:11.843Z,2944.00
2018-06-22T05:22:11.843Z,2864.00
2018-06-22T05:23:11.815Z,2720.00
2018-06-22T05:24:11.810Z,2892.00
2018-06-22T05:25:11.800Z,3096.00
2018-06-22T05:26:11.783Z,3292.00
2018-06-22T05:27:11.800Z,3404.00
2018-06-22T05:28:11.765Z,3428.00
2018-06-22T05:29:11.750Z,3748.00
2018-06-22T05:30:11.747Z,3576.00
2018-06-22T05:31:11.739Z,2968.00
2018-06-22T05:32:11.723Z,2852.00
2018-06-22T05:33:11.720Z,3060.00
2018-06-22T05:34:11.695Z,2908.00
2018-06-22T05:35:11.685Z,2664.00
2018-06-22T05:36:11.674Z,2492.00
2018-06-22T05:37:11.660Z,2472.00
2018-06-22T05:38:11.688Z,2428.00
2018-06-22T05:39:11.642Z,2456.00
2018-06-22T05:40:11.636Z,2780.00
2018-06-22T05:41:11.617Z,2824.00
2018-06-22T05:42:11.613Z,2924.00
2018-06-22T05:43:11.605Z,2976.00
2018-06-22T05:44:11.595Z,3016.00
2018-06-22T05:45:11.581Z,3156.00
2018-06-22T05:46:11.564Z,3528.00
2018-06-22T05:47:11.561Z,3300.00
2018-06-22T05:48:11.561Z,3436.00
2018-06-22T05:49:11.570Z,4356.00
2018-06-22T05:50:11.526Z,4864.00
2018-06-22T05:51:11.511Z,4844.00
2018-06-22T05:52:11.505Z,5280.00
2018-06-22T05:53:11.499Z,5424.00
2018-06-22T05:54:11.504Z,5628.00
2018-06-22T05:55:11.467Z,6116.00
2018-06-22T05:56:11.458Z,5528.00
2018-06-22T05:57:11.448Z,6008.00
2018-06-22T05:58:11.431Z,6524.00
2018-06-22T05:59:11.424Z,6828.00
2018-06-22T06:00:11.415Z,6136.00
2018-06-22T06:01:11.400Z,5976.00
2018-06-22T06:02:11.395Z,6828.00
2018-06-22T06:03:11.389Z,6692.00
2018-06-22T06:04:11.371Z,5756.00
2018-06-22T06:05:11.394Z,7324.00
2018-06-22T06:06:11.347Z,7192.00
2018-06-22T06:07:11.337Z,5932.00
2018-06-22T06:08:11.325Z,5776.00
2018-06-22T06:09:11.318Z,4972.00
2018-06-22T06:10:11.310Z,4428.00
2018-06-22T06:11:11.359Z,4456.00
2018-06-22T06:12:11.285Z,6640.00
2018-06-22T06:13:11.270Z,6808.00
2018-06-22T06:14:11.266Z,7304.00
2018-06-22T06:15:11.253Z,6892.00
2018-06-22T06:16:11.261Z,7116.00
2018-06-22T06:17:11.233Z,5404.00
2018-06-22T06:18:11.217Z,5620.00
2018-06-22T06:19:11.207Z,5100.00
2018-06-22T06:20:11.199Z,5476.00
2018-06-22T06:21:11.219Z,5276.00
2018-06-22T06:22:11.200Z,7356.00
2018-06-22T06:23:11.184Z,8228.00
2018-06-22T06:24:11.157Z,9360.00
2018-06-22T06:25:11.146Z,10244.00
2018-06-22T06:26:11.138Z,9792.00
2018-06-22T06:27:11.180Z,10840.00
2018-06-22T06:28:11.117Z,10204.00
2018-06-22T06:29:11.106Z,11960.00
2018-06-22T06:30:11.089Z,10144.00
2018-06-22T06:31:11.080Z,8064.00
2018-06-22T06:32:11.068Z,7856.00
2018-06-22T06:33:11.055Z,5508.00
2018-06-22T06:34:11.048Z,5604.00
2018-06-22T06:35:11.056Z,6184.00
2018-06-22T06:36:11.049Z,5320.00
2018-06-22T06:37:11.064Z,5400.00
2018-06-22T06:38:11.002Z,7396.00
2018-06-22T06:39:10.988Z,7752.00
2018-06-22T06:40:10.977Z,6664.00
2018-06-22T06:41:10.972Z,6832.00
2018-06-22T06:42:10.961Z,7740.00
2018-06-22T06:43:10.953Z,10124.00
2018-06-22T06:44:10.937Z,7404.00
2018-06-22T06:45:10.927Z,7308.00
2018-06-22T06:46:10.920Z,6592.00
2018-06-22T06:47:10.911Z,4512.00
2018-06-22T06:48:10.927Z,3528.00
2018-06-22T06:49:10.885Z,3480.00
2018-06-22T06:50:10.871Z,3596.00
2018-06-22T06:51:10.860Z,3896.00
2018-06-22T06:52:10.847Z,3592.00
2018-06-22T06:53:10.837Z,3772.00
2018-06-22T06:54:10.834Z,3948.00
2018-06-22T06:55:10.824Z,5860.00
2018-06-22T06:56:10.811Z,3792.00
2018-06-22T06:57:10.802Z,3460.00
2018-06-22T06:58:10.785Z,3172.00
2018-06-22T06:59:10.775Z,3336.00
2018-06-22T07:00:10.767Z,5940.00
2018-06-22T07:01:10.755Z,5212.00
2018-06-22T07:02:10.742Z,4404.00
2018-06-22T07:03:10.730Z,4308.00
2018-06-22T07:04:10.725Z,5596.00
2018-06-22T07:05:10.710Z,5356.00
2018-06-22T07:06:10.715Z,5084.00
2018-06-22T07:07:10.693Z,3748.00
2018-06-22T07:08:10.685Z,3660.00
2018-06-22T07:09:10.697Z,7636.00
2018-06-22T07:10:10.657Z,8960.00
2018-06-22T07:11:10.643Z,6488.00
2018-06-22T07:12:10.633Z,6892.00
2018-06-22T07:13:10.624Z,7460.00
2018-06-22T07:14:10.643Z,7524.00
2018-06-22T07:15:10.607Z,8456.00
2018-06-22T07:16:10.594Z,8428.00
2018-06-22T07:17:10.664Z,11700.00
2018-06-22T07:18:10.581Z,10548.00
2018-06-22T07:19:10.564Z,8732.00
2018-06-22T07:20:10.561Z,9592.00
2018-06-22T07:21:10.549Z,9544.00
2018-06-22T07:22:10.565Z,8580.00
2018-06-22T07:23:10.514Z,11300.00
2018-06-22T07:24:10.504Z,10800.00
2018-06-22T07:25:10.513Z,7152.00
2018-06-22T07:26:10.488Z,6576.00
2018-06-22T07:27:10.478Z,6708.00
2018-06-22T07:28:10.466Z,7268.00
2018-06-22T07:29:10.454Z,9432.00
2018-06-22T07:30:10.468Z,10124.00
2018-06-22T07:31:10.426Z,9912.00
2018-06-22T07:32:10.423Z,8748.00
2018-06-22T07:33:10.410Z,11512.00
2018-06-22T07:34:10.396Z,11988.00
2018-06-22T07:35:10.384Z,9520.00
2018-06-22T07:36:10.376Z,7784.00
2018-06-22T07:37:10.370Z,7272.00
2018-06-22T07:38:10.354Z,8288.00
2018-06-22T07:39:10.349Z,8592.00
2018-06-22T07:40:10.336Z,10008.00
2018-06-22T07:41:10.324Z,12316.00
2018-06-22T07:42:10.310Z,16264.00
2018-06-22T07:43:10.297Z,18464.00
2018-06-22T07:44:10.287Z,11004.00
2018-06-22T07:45:10.281Z,7888.00
2018-06-22T07:46:10.297Z,11576.00
2018-06-22T07:47:10.259Z,15620.00
2018-06-22T07:48:10.245Z,14988.00
2018-06-22T07:49:10.239Z,11320.00
2018-06-22T07:50:10.225Z,10464.00
2018-06-22T07:51:10.218Z,11484.00
2018-06-22T07:52:10.209Z,9960.00
2018-06-22T07:53:10.193Z,11452.00
2018-06-22T07:54:10.181Z,12020.00
2018-06-22T07:55:10.216Z,14112.00
2018-06-22T07:56:10.158Z,16704.00
2018-06-22T07:57:10.206Z,14784.00
2018-06-22T07:58:10.139Z,15536.00
2018-06-22T07:59:10.141Z,14564.00
2018-06-22T08:00:10.120Z,10476.00
2018-06-22T08:01:10.112Z,8668.00
2018-06-22T08:02:10.123Z,10304.00
2018-06-22T08:03:10.085Z,10192.00
2018-06-22T08:04:10.079Z,12588.00
2018-06-22T08:05:10.066Z,17152.00
2018-06-22T08:06:10.080Z,19872.00
2018-06-22T08:07:10.043Z,18880.00
2018-06-22T08:08:10.032Z,16412.00
2018-06-22T08:09:10.020Z,12736.00
2018-06-22T08:10:10.031Z,10828.00
2018-06-22T08:11:10.002Z,9400.00
2018-06-22T08:12:09.991Z,9132.00
2018-06-22T08:13:10.000Z,9572.00
2018-06-22T08:14:09.966Z,12692.00
2018-06-22T08:15:09.952Z,10964.00
2018-06-22T08:16:09.946Z,12696.00
2018-06-22T08:17:09.934Z,12980.00
2018-06-22T08:18:09.951Z,15668.00
2018-06-22T08:19:09.916Z,14460.00
2018-06-22T08:20:09.901Z,15616.00
2018-06-22T08:21:09.892Z,11772.00
2018-06-22T08:22:09.881Z,10908.00
2018-06-22T08:23:09.873Z,10516.00
2018-06-22T08:24:09.869Z,13984.00
2018-06-22T08:25:09.849Z,11720.00
2018-06-22T08:26:09.839Z,14664.00
2018-06-22T08:27:09.824Z,18272.00
2018-06-22T08:28:09.812Z,17696.00
2018-06-22T08:29:09.837Z,18272.00
2018-06-22T08:30:09.796Z,20288.00
2018-06-22T08:31:09.787Z,25632.00
2018-06-22T08:32:09.776Z,26816.00
2018-06-22T08:33:09.782Z,29664.00
2018-06-22T08:34:09.749Z,27616.00
2018-06-22T08:35:09.741Z,32416.00
2018-06-22T08:36:09.742Z,38144.00
2018-06-22T08:37:09.730Z,40640.00
2018-06-22T08:38:09.712Z,38528.00
2018-06-22T08:39:09.693Z,20064.00
2018-06-22T08:40:09.710Z,15512.00
2018-06-22T08:41:09.674Z,19424.00
2018-06-22T08:42:09.729Z,24288.00
2018-06-22T08:43:09.657Z,27392.00
2018-06-22T08:44:09.645Z,27520.00
2018-06-22T08:45:09.655Z,15104.00
2018-06-22T08:46:09.626Z,18496.00
2018-06-22T08:47:09.619Z,23648.00
2018-06-22T08:48:09.599Z,29536.00
2018-06-22T08:49:09.589Z,28672.00
2018-06-22T08:50:09.596Z,23520.00
2018-06-22T08:51:09.568Z,22144.00
2018-06-22T08:52:09.565Z,21504.00
2018-06-22T08:53:09.549Z,23008.00
2018-06-22T08:54:09.539Z,17760.00
2018-06-22T08:55:09.554Z,19264.00
2018-06-22T08:56:09.536Z,24864.00
2018-06-22T08:57:09.501Z,37024.00
2018-06-22T08:58:10.485Z,30048.00
2018-06-22T08:59:09.474Z,17888.00
2018-06-22T09:00:09.470Z,17216.00
2018-06-22T09:01:09.469Z,26080.00
2018-06-22T09:02:09.450Z,20416.00
2018-06-22T09:03:09.439Z,17376.00
2018-06-22T09:04:09.427Z,12172.00
2018-06-22T09:05:09.413Z,12384.00
2018-06-22T09:06:09.421Z,19040.00
2018-06-22T09:07:09.393Z,30528.00
2018-06-22T09:08:09.447Z,42432.00
2018-06-22T09:09:09.370Z,35808.00
2018-06-22T09:10:09.357Z,26016.00
2018-06-22T09:11:09.373Z,18816.00
2018-06-22T09:12:09.336Z,23392.00
2018-06-22T09:13:09.362Z,31328.00
2018-06-22T09:14:09.360Z,45248.00
2018-06-22T09:15:09.308Z,38720.00
2018-06-22T09:16:09.297Z,32000.00
2018-06-22T09:17:09.287Z,22496.00
2018-06-22T09:18:09.275Z,24608.00
2018-06-22T09:19:09.261Z,71456.00
2018-06-22T09:20:09.253Z,29600.00
2018-06-22T09:21:09.238Z,29568.00
2018-06-22T09:22:09.250Z,34688.00
2018-06-22T09:23:09.223Z,36352.00
2018-06-22T09:24:09.204Z,38432.00
2018-06-22T09:25:09.199Z,44640.00
2018-06-22T09:26:09.188Z,31968.00
2018-06-22T09:27:09.206Z,33248.00
2018-06-22T09:28:09.177Z,35904.00
2018-06-22T09:29:09.161Z,36480.00
2018-06-22T09:30:09.143Z,20512.00
2018-06-22T09:31:09.127Z,37888.00
2018-06-22T09:32:09.117Z,30496.00
2018-06-22T09:33:09.115Z,31296.00
2018-06-22T09:34:09.106Z,25632.00
2018-06-22T09:35:09.100Z,14948.00
2018-06-22T09:36:09.081Z,11596.00
2018-06-22T09:37:09.070Z,10364.00
2018-06-22T09:38:09.083Z,10040.00
2018-06-22T09:39:09.043Z,10200.00
2018-06-22T09:40:09.038Z,9396.00
2018-06-22T09:41:09.028Z,7976.00
2018-06-22T09:42:09.012Z,6636.00
2018-06-22T09:43:09.019Z,12564.00
2018-06-22T09:44:09.015Z,20320.00
2018-06-22T09:45:08.997Z,22400.00
2018-06-22T09:46:08.972Z,23232.00
2018-06-22T09:47:08.965Z,22624.00
2018-06-22T09:48:08.953Z,23744.00
2018-06-22T09:49:08.969Z,17408.00
2018-06-22T09:50:08.926Z,13172.00
2018-06-22T09:51:08.914Z,14356.00
2018-06-22T09:52:08.907Z,10516.00
2018-06-22T09:53:08.941Z,7412.00
2018-06-22T09:54:08.888Z,8424.00
2018-06-22T09:55:08.943Z,9636.00
2018-06-22T09:56:08.861Z,12960.00
2018-06-22T09:57:08.851Z,16640.00
2018-06-22T09:58:08.842Z,17312.00
2018-06-22T09:59:08.836Z,17792.00
2018-06-22T10:00:08.826Z,19232.00
2018-06-22T10:01:08.819Z,21088.00
2018-06-22T10:02:08.862Z,25824.00
2018-06-22T10:03:08.784Z,32704.00
2018-06-22T10:04:08.773Z,36416.00
2018-06-22T10:05:08.791Z,31136.00
2018-06-22T10:06:08.756Z,25024.00
2018-06-22T10:07:08.749Z,27584.00
2018-06-22T10:08:08.741Z,34368.00
2018-06-22T10:09:08.723Z,31104.00
2018-06-22T10:10:08.724Z,18112.00
2018-06-22T10:11:08.700Z,9724.00
2018-06-22T10:12:08.695Z,8108.00
2018-06-22T10:13:08.681Z,6672.00
2018-06-22T10:14:08.671Z,7880.00
2018-06-22T10:15:08.653Z,10260.00
2018-06-22T10:16:08.680Z,15560.00
2018-06-22T10:17:08.635Z,16336.00
2018-06-22T10:18:08.625Z,17504.00
2018-06-22T10:19:08.617Z,22592.00
2018-06-22T10:20:08.611Z,31200.00
2018-06-22T10:21:08.594Z,42656.00
2018-06-22T10:22:08.584Z,37856.00
2018-06-22T10:23:08.574Z,38208.00
2018-06-22T10:24:08.565Z,33280.00
2018-06-22T10:25:08.555Z,30656.00
2018-06-22T10:26:08.539Z,30464.00
2018-06-22T10:27:08.561Z,31488.00
2018-06-22T10:28:08.516Z,32768.00
2018-06-22T10:29:08.520Z,32128.00
2018-06-22T10:30:08.497Z,26848.00
2018-06-22T10:31:08.493Z,24096.00
2018-06-22T10:32:08.497Z,17208.00
2018-06-22T10:33:08.469Z,39200.00
2018-06-22T10:34:08.452Z,105728.00
2018-06-22T10:35:08.438Z,106624.00
2018-06-22T10:36:08.429Z,103488.00
2018-06-22T10:37:08.445Z,92992.00
2018-06-22T10:38:08.413Z,83008.00
2018-06-22T10:39:08.432Z,71616.00
2018-06-22T10:40:08.399Z,46208.00
2018-06-22T10:41:08.381Z,32960.00
2018-06-22T10:42:08.364Z,12840.00
2018-06-22T10:43:08.365Z,9240.00
2018-06-22T10:44:08.349Z,8772.00
2018-06-22T10:45:08.339Z,8048.00
2018-06-22T10:46:08.336Z,8460.00
2018-06-22T10:47:08.314Z,10040.00
2018-06-22T10:48:08.330Z,14236.00
2018-06-22T10:49:08.290Z,20800.00
2018-06-22T10:50:08.285Z,25952.00
2018-06-22T10:51:08.275Z,37504.00
2018-06-22T10:52:08.261Z,35392.00
2018-06-22T10:53:08.258Z,26272.00
2018-06-22T10:54:08.237Z,27488.00
2018-06-22T10:55:08.228Z,17440.00
2018-06-22T10:56:08.218Z,15968.00
2018-06-22T10:57:08.204Z,11520.00
2018-06-22T10:58:08.199Z,12576.00
2018-06-22T10:59:08.205Z,12564.00
2018-06-22T11:00:08.172Z,10852.00
2018-06-22T11:01:08.160Z,10304.00
2018-06-22T11:02:08.156Z,14088.00
2018-06-22T11:03:08.144Z,22176.00
2018-06-22T11:04:08.163Z,28096.00
2018-06-22T11:05:08.125Z,28064.00
2018-06-22T11:06:08.113Z,32416.00
2018-06-22T11:07:08.101Z,43296.00
2018-06-22T11:08:08.087Z,37600.00
2018-06-22T11:09:08.074Z,28992.00
2018-06-22T11:10:08.077Z,32640.00
2018-06-22T11:11:08.071Z,35328.00
2018-06-22T11:12:08.047Z,36128.00
2018-06-22T11:13:08.037Z,38304.00
2018-06-22T11:14:08.030Z,34528.00
2018-06-22T11:15:08.053Z,31008.00
2018-06-22T11:16:08.050Z,40192.00
2018-06-22T11:17:08.033Z,61248.00
2018-06-22T11:18:08.027Z,59168.00
2018-06-22T11:19:07.971Z,55104.00
2018-06-22T11:20:07.957Z,34816.00
2018-06-22T11:21:07.950Z,30848.00
2018-06-22T11:22:07.945Z,26688.00
2018-06-22T11:23:07.930Z,30368.00
2018-06-22T11:24:07.919Z,18624.00
2018-06-22T11:25:07.909Z,11676.00
2018-06-22T11:26:07.922Z,8936.00
2018-06-22T11:27:07.883Z,14488.00
2018-06-22T11:28:07.876Z,13868.00
2018-06-22T11:29:07.863Z,14308.00
2018-06-22T11:30:07.856Z,19008.00
2018-06-22T11:31:07.845Z,13872.00
2018-06-22T11:32:07.856Z,12320.00
2018-06-22T11:33:07.817Z,12072.00
2018-06-22T11:34:07.812Z,11440.00
2018-06-22T11:35:07.800Z,12848.00
2018-06-22T11:36:07.848Z,13696.00
2018-06-22T11:37:07.788Z,11492.00
2018-06-22T11:38:07.763Z,9264.00
2018-06-22T11:39:07.762Z,14904.00
2018-06-22T11:40:07.743Z,10628.00
2018-06-22T11:41:07.732Z,7200.00
2018-06-22T11:42:07.757Z,15996.00
2018-06-22T11:43:07.713Z,22400.00
2018-06-22T11:44:07.728Z,24096.00
2018-06-22T11:45:07.698Z,26624.00
2018-06-22T11:46:07.677Z,30336.00
2018-06-22T11:47:07.670Z,34080.00
2018-06-22T11:48:07.664Z,41344.00
2018-06-22T11:49:07.652Z,44896.00
2018-06-22T11:50:07.634Z,44480.00
2018-06-22T11:51:07.650Z,34560.00
2018-06-22T11:52:07.615Z,41888.00
2018-06-22T11:53:07.636Z,55616.00
2018-06-22T11:54:07.598Z,49952.00
2018-06-22T11:55:07.588Z,45152.00
2018-06-22T11:56:07.574Z,39616.00
2018-06-22T11:57:07.567Z,32064.00
2018-06-22T11:58:07.549Z,68160.00
2018-06-22T11:59:07.620Z,81216.00
2018-06-22T12:00:07.538Z,53504.00
2018-06-22T12:01:07.524Z,80256.00
2018-06-22T12:02:07.516Z,93920.00
2018-06-22T12:03:07.524Z,122560.00
2018-06-22T12:04:07.488Z,91232.00
2018-06-22T12:05:07.474Z,107776.00
2018-06-22T12:06:07.469Z,101280.00
2018-06-22T12:07:07.457Z,115680.00
2018-06-22T12:08:07.450Z,60896.00
2018-06-22T12:09:07.471Z,113120.00
2018-06-22T12:10:07.422Z,25632.00
2018-06-22T12:11:07.415Z,66752.00
2018-06-22T12:12:07.404Z,114336.00
2018-06-22T12:13:07.391Z,120896.00
2018-06-22T12:14:07.392Z,30944.00
2018-06-22T12:15:07.376Z,45216.00